Main page
METAR-TAF:

METAR-TAF

Airports :

Resia Pass, Italy

latitude: 46-50N, longitude: 010-30E, elevation: 1800 m

Current weather observation

The report was made 57 minutes ago, at 21:55 UTC
Wind 8 kt from the Northeast with gusts up to 19 kt
Temperature 6°C
Humidity 81%
Pressure 1015 hPa
Visibility 10 km or more
no clouds below 1500 m and no cumulonimbus

METAR: LIVE 262155Z 04008G19KT CAVOK 06/03 Q1015 RMK SKC VIS MIN 9999

Time: 00:52 (22:52 UTC)


TAF: missing

Weather observations and forecasts of more than 4000 airports (METAR and TAF reports).

The available stations are represented by yellow and red dots on the map.

Hover mouse over dot to see the name of the station.

Then click to see weather observations and forecasts.

To change the map : click on the green buttons with a black cross to zoom in, on the green button with a dash to zoom out, or on the green arrows for adjacent maps.


METAR-TAF: